createdAt,value
2022-10-02T00:02:23.153Z,6.58
2022-10-02T00:05:04.729Z,7.10
2022-10-02T00:07:45.656Z,6.00
2022-10-02T00:10:21.077Z,6.37
2022-10-02T00:12:52.978Z,5.95
2022-10-02T00:15:25.514Z,6.05
2022-10-02T00:17:57.617Z,6.20
2022-10-02T00:20:42.009Z,5.70
2022-10-02T00:23:14.578Z,5.92
2022-10-02T00:28:25.457Z,5.60
2022-10-02T00:31:09.791Z,5.55
2022-10-02T00:33:42.406Z,5.85
2022-10-02T00:36:20.357Z,5.55
2022-10-02T00:38:52.875Z,5.58
2022-10-02T00:41:25.291Z,5.62
2022-10-02T00:44:09.712Z,5.30
2022-10-02T00:46:42.186Z,5.30
2022-10-02T00:49:32.626Z,5.58
2022-10-02T00:52:34.758Z,5.10
2022-10-02T00:55:27.894Z,5.70
2022-10-02T00:58:15.220Z,5.37
2022-10-02T01:00:47.815Z,5.53
2022-10-02T01:03:25.090Z,5.03
2022-10-02T01:05:54.327Z,5.42
2022-10-02T01:08:23.634Z,5.55
2022-10-02T01:10:53.107Z,4.78
2022-10-02T01:13:22.428Z,5.65
2022-10-02T01:15:55.314Z,5.45
2022-10-02T01:18:24.735Z,5.37
2022-10-02T01:21:00.086Z,5.00
2022-10-02T01:23:47.281Z,5.35
2022-10-02T01:26:16.675Z,5.30
2022-10-02T01:28:46.023Z,5.55
2022-10-02T01:31:16.450Z,5.25
2022-10-02T01:33:47.994Z,6.10
2022-10-02T01:36:18.005Z,6.20
2022-10-02T01:38:47.951Z,5.37
2022-10-02T01:41:17.347Z,6.00
2022-10-02T01:43:58.405Z,5.92
2022-10-02T01:46:59.448Z,5.55
2022-10-02T01:49:58.537Z,5.33
2022-10-02T01:52:39.902Z,5.95
2022-10-02T01:55:36.309Z,5.55
2022-10-02T01:58:08.860Z,5.83
2022-10-02T02:03:29.407Z,6.12
2022-10-02T02:06:10.892Z,6.35
2022-10-02T02:08:52.540Z,6.40
2022-10-02T02:11:22.928Z,6.90
2022-10-02T02:14:04.833Z,6.78
2022-10-02T02:16:42.709Z,7.10
2022-10-02T02:19:23.051Z,6.37
2022-10-02T02:21:55.645Z,6.62
2022-10-02T02:27:15.065Z,6.72
2022-10-02T02:29:46.405Z,6.75
2022-10-02T02:32:18.587Z,7.05
2022-10-02T02:34:51.227Z,7.50
2022-10-02T02:40:01.738Z,8.00
2022-10-02T02:42:33.354Z,7.35
2022-10-02T02:45:12.172Z,7.53
2022-10-02T02:47:55.083Z,7.45
2022-10-02T02:50:30.660Z,7.97
2022-10-02T02:53:05.276Z,7.65
2022-10-02T02:55:39.290Z,8.10
2022-10-02T02:58:32.375Z,7.40
2022-10-02T03:01:02.094Z,7.08
2022-10-02T03:03:31.408Z,6.10
2022-10-02T03:06:05.755Z,6.20
2022-10-02T03:08:39.854Z,5.10
2022-10-02T03:11:24.605Z,6.05
2022-10-02T03:14:31.942Z,5.70
2022-10-02T03:17:13.211Z,5.95
2022-10-02T03:19:48.317Z,5.70
2022-10-02T03:22:42.913Z,5.70
2022-10-02T03:25:14.973Z,5.47
2022-10-02T03:27:56.369Z,5.45
2022-10-02T03:30:25.877Z,6.03
2022-10-02T03:32:56.349Z,5.72
2022-10-02T03:35:26.675Z,6.40
2022-10-02T03:37:59.352Z,5.75
2022-10-02T03:42:58.519Z,6.60
2022-10-02T03:45:50.106Z,5.40
2022-10-02T03:47:59.779Z,4.62
2022-10-02T03:50:31.758Z,4.60
2022-10-02T03:53:00.104Z,4.60
2022-10-02T03:55:35.796Z,4.53
2022-10-02T03:58:08.168Z,4.12
2022-10-02T04:00:46.469Z,4.30
2022-10-02T04:03:18.913Z,3.70
2022-10-02T04:05:51.379Z,4.25
2022-10-02T04:08:26.834Z,3.95
2022-10-02T04:11:02.290Z,3.83
2022-10-02T04:13:40.490Z,4.05
2022-10-02T04:16:34.791Z,4.20
2022-10-02T04:19:07.626Z,4.50
2022-10-02T04:22:00.610Z,4.45
2022-10-02T04:27:17.378Z,4.50
2022-10-02T04:29:52.641Z,5.35
2022-10-02T04:32:31.334Z,4.80
2022-10-02T04:35:02.960Z,5.05
2022-10-02T04:37:50.724Z,5.20
2022-10-02T04:40:41.076Z,6.15
2022-10-02T04:43:16.494Z,5.90
2022-10-02T04:46:14.794Z,6.12
2022-10-02T04:48:49.832Z,6.42
2022-10-02T04:51:39.008Z,6.30
2022-10-02T04:54:25.723Z,6.70
2022-10-02T04:57:07.253Z,6.40
2022-10-02T05:00:02.081Z,6.20
2022-10-02T05:02:52.919Z,6.65
2022-10-02T05:05:39.968Z,6.55
2022-10-02T05:08:21.563Z,6.87
2022-10-02T05:11:12.096Z,6.78
2022-10-02T05:14:10.712Z,7.12
2022-10-02T05:17:10.385Z,7.72
2022-10-02T05:19:51.910Z,8.03
2022-10-02T05:22:47.297Z,8.15
2022-10-02T05:25:45.608Z,8.23
2022-10-02T05:28:18.103Z,8.00
2022-10-02T05:30:53.463Z,8.45
2022-10-02T05:33:48.245Z,7.83
2022-10-02T05:36:38.623Z,8.35
2022-10-02T05:39:11.795Z,9.25
2022-10-02T05:41:47.062Z,8.95
2022-10-02T05:44:25.588Z,8.20
2022-10-02T05:47:04.265Z,8.73
2022-10-02T05:49:44.833Z,8.88
2022-10-02T05:52:43.151Z,9.35
2022-10-02T05:55:30.529Z,8.38
2022-10-02T05:58:14.476Z,8.15
2022-10-02T06:01:06.603Z,8.43
2022-10-02T06:03:49.098Z,8.60
2022-10-02T06:06:36.911Z,8.55
2022-10-02T06:09:26.883Z,7.65
2022-10-02T06:12:14.567Z,7.65
2022-10-02T06:14:53.275Z,7.62
2022-10-02T06:17:42.163Z,8.63
2022-10-02T06:20:20.619Z,8.23
2022-10-02T06:22:52.527Z,7.40
2022-10-02T06:25:25.095Z,7.60
2022-10-02T06:30:31.755Z,6.30
2022-10-02T06:33:04.326Z,6.62
2022-10-02T06:38:13.009Z,6.65
2022-10-02T06:40:57.467Z,6.12
2022-10-02T06:43:55.752Z,6.15
2022-10-02T06:46:30.880Z,6.00
2022-10-02T06:49:24.772Z,6.35
2022-10-02T06:52:15.105Z,6.25
2022-10-02T06:54:53.555Z,6.47
2022-10-02T06:57:26.301Z,5.87
2022-10-02T07:00:05.881Z,5.90
2022-10-02T07:02:46.841Z,4.92
2022-10-02T07:05:40.181Z,5.70
2022-10-02T07:08:24.548Z,4.75
2022-10-02T07:11:14.893Z,5.15
2022-10-02T07:14:12.277Z,5.05
2022-10-02T07:16:53.744Z,5.55
2022-10-02T07:19:34.797Z,5.20
2022-10-02T07:22:44.479Z,4.92
2022-10-02T07:25:10.479Z,5.20
2022-10-02T07:27:42.987Z,5.30
2022-10-02T07:30:17.450Z,5.62
2022-10-02T07:32:49.067Z,4.70
2022-10-02T07:35:42.095Z,5.08
2022-10-02T07:41:05.378Z,4.65
2022-10-02T07:43:54.271Z,4.60
2022-10-02T07:46:35.932Z,4.58
2022-10-02T07:49:11.462Z,4.57
2022-10-02T07:51:53.805Z,4.33
2022-10-02T07:54:32.000Z,5.05
2022-10-02T07:57:07.715Z,4.45
2022-10-02T07:59:36.723Z,4.28
2022-10-02T08:02:08.434Z,4.75
2022-10-02T08:04:39.312Z,4.25
2022-10-02T08:07:08.522Z,4.45
2022-10-02T08:09:49.688Z,4.65
2022-10-02T08:12:30.212Z,4.40
2022-10-02T08:15:02.126Z,4.22
2022-10-02T08:17:52.126Z,4.17
2022-10-02T08:20:39.781Z,4.25
2022-10-02T08:23:24.935Z,4.10
2022-10-02T08:26:03.161Z,4.25
2022-10-02T08:28:38.205Z,3.90
2022-10-02T08:31:11.174Z,3.37
2022-10-02T08:33:41.282Z,3.85
2022-10-02T08:36:16.934Z,3.70
2022-10-02T08:38:54.687Z,3.60
2022-10-02T08:41:46.516Z,3.90
2022-10-02T08:44:22.080Z,3.37
2022-10-02T08:47:07.391Z,3.25
2022-10-02T08:49:52.630Z,3.98
2022-10-02T08:52:28.326Z,3.83
2022-10-02T08:55:23.151Z,3.37
2022-10-02T08:58:12.877Z,3.72
2022-10-02T09:01:10.073Z,3.20
2022-10-02T09:04:09.209Z,3.72
2022-10-02T09:06:59.815Z,3.12
2022-10-02T09:10:07.105Z,3.37
2022-10-02T09:12:58.523Z,3.70
2022-10-02T09:15:40.022Z,3.20
2022-10-02T09:18:21.022Z,3.27
2022-10-02T09:21:26.863Z,3.50
2022-10-02T09:24:17.161Z,3.27
2022-10-02T09:27:22.658Z,3.20
2022-10-02T09:30:07.251Z,3.37
2022-10-02T09:32:45.768Z,4.35
2022-10-02T09:35:27.185Z,3.12
2022-10-02T09:38:11.347Z,2.98
2022-10-02T09:41:02.774Z,3.33
2022-10-02T09:43:43.781Z,3.00
2022-10-02T09:46:51.141Z,3.17
2022-10-02T09:49:35.295Z,2.58
2022-10-02T09:52:27.353Z,2.80
2022-10-02T09:55:15.026Z,3.40
2022-10-02T09:57:56.241Z,3.05
2022-10-02T10:00:34.455Z,2.67
2022-10-02T10:03:36.623Z,3.12
2022-10-02T10:06:26.714Z,3.23
2022-10-02T10:09:14.201Z,3.37
2022-10-02T10:12:01.919Z,3.05
2022-10-02T10:14:49.110Z,3.25
2022-10-02T10:17:24.280Z,3.27
2022-10-02T10:20:12.639Z,2.60
2022-10-02T10:23:03.651Z,2.87
2022-10-02T10:25:49.602Z,2.83
2022-10-02T10:28:28.283Z,2.52
2022-10-02T10:31:21.984Z,2.58
2022-10-02T10:34:11.369Z,2.77
2022-10-02T10:37:22.481Z,2.75
2022-10-02T10:40:03.281Z,2.60
2022-10-02T10:43:14.320Z,2.65
2022-10-02T10:45:38.310Z,2.60
2022-10-02T10:48:38.275Z,2.47
2022-10-02T10:51:30.476Z,2.50
2022-10-02T10:54:12.238Z,3.10
2022-10-02T10:56:59.512Z,2.60
2022-10-02T10:59:39.168Z,2.90
2022-10-02T11:02:17.308Z,2.37
2022-10-02T11:05:01.651Z,2.52
2022-10-02T11:07:39.561Z,2.85
2022-10-02T11:10:17.707Z,2.55
2022-10-02T11:13:07.312Z,2.62
2022-10-02T11:15:42.966Z,2.75
2022-10-02T11:18:18.007Z,2.55
2022-10-02T11:21:05.523Z,2.85
2022-10-02T11:23:43.668Z,2.40
2022-10-02T11:26:32.572Z,2.40
2022-10-02T11:29:16.757Z,2.95
2022-10-02T11:32:04.347Z,2.42
2022-10-02T11:34:53.125Z,2.50
2022-10-02T11:37:37.705Z,2.37
2022-10-02T11:40:37.115Z,2.30
2022-10-02T11:43:35.301Z,2.15
2022-10-02T11:46:33.317Z,2.33
2022-10-02T11:49:22.811Z,2.50
2022-10-02T11:52:11.622Z,2.83
2022-10-02T11:54:44.896Z,2.15
2022-10-02T11:57:30.261Z,2.42
2022-10-02T12:00:16.153Z,2.20
2022-10-02T12:02:51.163Z,2.30
2022-10-02T12:05:34.164Z,2.45
2022-10-02T12:08:18.304Z,2.30
2022-10-02T12:10:56.599Z,2.72
2022-10-02T12:13:47.256Z,2.27
2022-10-02T12:16:31.830Z,2.10
2022-10-02T12:19:08.200Z,2.67
2022-10-02T12:22:01.880Z,2.27
2022-10-02T12:25:09.253Z,2.75
2022-10-02T12:27:57.597Z,2.47
2022-10-02T12:30:33.062Z,2.67
2022-10-02T12:33:27.377Z,2.40
2022-10-02T12:36:19.114Z,2.30
2022-10-02T12:39:00.401Z,2.25
2022-10-02T12:42:06.323Z,2.12
2022-10-02T12:44:57.074Z,2.30
2022-10-02T12:47:32.115Z,2.40
2022-10-02T12:50:05.480Z,2.10
2022-10-02T12:52:44.135Z,14.07
2022-10-02T12:58:45.314Z,2.70
2022-10-02T13:01:31.285Z,2.15
2022-10-02T13:04:21.853Z,2.33
2022-10-02T13:07:20.669Z,2.25
2022-10-02T13:10:19.392Z,2.17
2022-10-02T13:12:54.559Z,2.12
2022-10-02T13:15:34.084Z,1.98
2022-10-02T13:18:09.148Z,1.90
2022-10-02T13:20:54.156Z,2.02
2022-10-02T13:23:41.037Z,2.22
2022-10-02T13:26:32.001Z,2.50
2022-10-02T13:29:07.157Z,2.15
2022-10-02T13:31:45.475Z,2.33
2022-10-02T13:34:36.406Z,2.08
2022-10-02T13:37:15.738Z,2.30
2022-10-02T13:40:07.010Z,2.72
2022-10-02T13:42:45.453Z,2.33
2022-10-02T13:45:21.436Z,1.90
2022-10-02T13:48:03.638Z,1.70
2022-10-02T13:51:04.975Z,2.08
2022-10-02T13:53:46.151Z,2.15
2022-10-02T13:56:38.322Z,1.98
2022-10-02T13:59:27.431Z,1.90
2022-10-02T14:02:15.282Z,1.92
2022-10-02T14:05:02.623Z,2.12
2022-10-02T14:07:53.192Z,1.85
2022-10-02T14:10:35.075Z,1.57
2022-10-02T14:13:26.098Z,1.73
2022-10-02T14:16:02.600Z,2.15
2022-10-02T14:18:44.164Z,2.05
2022-10-02T14:21:22.284Z,1.90
2022-10-02T14:24:09.626Z,1.95
2022-10-02T14:26:45.440Z,2.15
2022-10-02T14:29:45.146Z,2.20
2022-10-02T14:32:23.502Z,1.82
2022-10-02T14:35:29.632Z,1.98
2022-10-02T14:38:04.954Z,1.95
2022-10-02T14:40:46.095Z,1.62
2022-10-02T14:43:36.569Z,1.57
2022-10-02T14:46:28.821Z,2.10
2022-10-02T14:49:13.346Z,2.22
2022-10-02T14:52:01.504Z,2.20
2022-10-02T14:54:49.007Z,1.82
2022-10-02T14:57:21.540Z,2.12
2022-10-02T15:00:18.242Z,2.20
2022-10-02T15:03:10.421Z,2.42
2022-10-02T15:06:10.727Z,2.17
2022-10-02T15:08:46.459Z,3.37
2022-10-02T15:11:28.108Z,1.92
2022-10-02T15:14:00.839Z,2.30
2022-10-02T15:17:09.068Z,1.85
2022-10-02T15:19:50.015Z,1.57
2022-10-02T15:22:22.628Z,1.90
2022-10-02T15:24:59.154Z,1.60
2022-10-02T15:27:34.779Z,1.52
2022-10-02T15:30:16.334Z,1.75
2022-10-02T15:32:51.432Z,2.50
2022-10-02T15:35:39.282Z,2.30
2022-10-02T15:38:20.547Z,2.17
2022-10-02T15:41:19.230Z,2.47
2022-10-02T15:43:57.237Z,2.45
2022-10-02T15:46:32.607Z,2.67
2022-10-02T15:49:21.730Z,2.33
2022-10-02T15:52:20.934Z,2.52
2022-10-02T15:55:08.130Z,2.50
2022-10-02T15:57:55.888Z,2.25
2022-10-02T16:00:27.273Z,2.77
2022-10-02T16:03:00.252Z,2.12
2022-10-02T16:05:51.013Z,2.20
2022-10-02T16:08:23.700Z,2.42
2022-10-02T16:11:01.988Z,2.37
2022-10-02T16:13:53.931Z,2.37
2022-10-02T16:16:47.629Z,2.40
2022-10-02T16:19:38.249Z,2.58
2022-10-02T16:22:18.101Z,2.58
2022-10-02T16:25:17.850Z,2.45
2022-10-02T16:28:02.135Z,2.17
2022-10-02T16:30:34.657Z,2.90
2022-10-02T16:33:21.049Z,2.85
2022-10-02T16:36:05.011Z,2.52
2022-10-02T16:38:53.049Z,8.63
2022-10-02T16:41:40.478Z,2.45
2022-10-02T16:44:32.477Z,2.85
2022-10-02T16:47:12.025Z,3.00
2022-10-02T16:50:05.476Z,2.83
2022-10-02T16:52:40.822Z,2.50
2022-10-02T16:55:19.863Z,2.65
2022-10-02T16:57:52.330Z,3.10
2022-10-02T17:00:28.000Z,2.98
2022-10-02T17:03:15.377Z,2.80
2022-10-02T17:05:47.968Z,3.37
2022-10-02T17:11:04.023Z,2.70
2022-10-02T17:13:39.037Z,3.02
2022-10-02T17:16:21.133Z,2.80
2022-10-02T17:18:59.445Z,2.58
2022-10-02T17:21:52.974Z,3.12
2022-10-02T17:24:25.346Z,2.83
2022-10-02T17:27:31.268Z,3.10
2022-10-02T17:30:22.907Z,3.35
2022-10-02T17:33:13.205Z,2.60
2022-10-02T17:35:54.660Z,2.52
2022-10-02T17:38:27.224Z,2.58
2022-10-02T17:43:52.376Z,2.98
2022-10-02T17:46:24.754Z,2.60
2022-10-02T17:49:26.183Z,3.02
2022-10-02T17:52:34.351Z,2.52
2022-10-02T17:55:55.510Z,2.47
2022-10-02T17:58:35.522Z,2.45
2022-10-02T18:01:23.444Z,2.90
2022-10-02T18:04:14.293Z,2.62
2022-10-02T18:06:58.755Z,2.77
2022-10-02T18:09:46.456Z,2.90
2022-10-02T18:12:45.994Z,4.08
2022-10-02T18:15:33.340Z,2.80
2022-10-02T18:18:21.315Z,2.70
2022-10-02T18:21:27.022Z,2.47
2022-10-02T18:24:08.040Z,2.62
2022-10-02T18:26:58.691Z,2.40
2022-10-02T18:29:40.237Z,3.00
2022-10-02T18:32:26.409Z,3.08
2022-10-02T18:34:58.930Z,3.05
2022-10-02T18:37:40.305Z,2.83
2022-10-02T18:40:33.378Z,2.65
2022-10-02T18:45:40.936Z,2.83
2022-10-02T18:48:31.405Z,2.98
2022-10-02T18:51:09.967Z,2.87
2022-10-02T18:53:48.442Z,4.42
2022-10-02T18:56:21.256Z,4.65
2022-10-02T18:59:12.990Z,5.33
2022-10-02T19:01:45.648Z,6.00
2022-10-02T19:04:24.424Z,6.15
2022-10-02T19:07:05.736Z,6.50
2022-10-02T19:09:35.438Z,8.65
2022-10-02T19:12:18.546Z,6.65
2022-10-02T19:14:47.940Z,6.37
2022-10-02T19:17:25.968Z,4.60
2022-10-02T19:19:56.181Z,3.67
2022-10-02T19:22:35.214Z,3.45
2022-10-02T19:25:15.488Z,4.10
2022-10-02T19:27:49.370Z,3.62
2022-10-02T19:30:27.186Z,3.62
2022-10-02T19:33:04.504Z,4.10
2022-10-02T19:35:36.527Z,4.25
2022-10-02T19:38:12.608Z,5.60
2022-10-02T19:40:42.788Z,5.30
2022-10-02T19:43:24.729Z,4.95
2022-10-02T19:45:57.244Z,5.73
2022-10-02T19:50:59.352Z,6.05
2022-10-02T19:56:16.803Z,7.95
2022-10-02T19:58:54.868Z,7.90
2022-10-02T20:01:27.388Z,8.00
2022-10-02T20:04:00.041Z,16.23
2022-10-02T20:06:32.050Z,10.85
2022-10-02T20:09:23.156Z,8.63
2022-10-02T20:12:08.257Z,9.05
2022-10-02T20:14:49.332Z,8.90
2022-10-02T20:17:19.301Z,7.55
2022-10-02T20:19:58.062Z,6.20
2022-10-02T20:22:48.693Z,5.47
2022-10-02T20:25:21.326Z,4.90
2022-10-02T20:30:23.709Z,5.03
2022-10-02T20:33:07.719Z,5.45
2022-10-02T20:35:45.896Z,4.12
2022-10-02T20:38:33.297Z,4.50
2022-10-02T20:41:05.798Z,3.90
2022-10-02T20:43:44.901Z,4.05
2022-10-02T20:46:23.825Z,4.70
2022-10-02T20:49:09.340Z,3.77
2022-10-02T20:52:06.487Z,4.12
2022-10-02T20:55:03.098Z,3.67
2022-10-02T20:58:00.726Z,4.20
2022-10-02T21:00:22.945Z,4.60
2022-10-02T21:03:10.342Z,4.65
2022-10-02T21:05:45.507Z,4.65
2022-10-02T21:08:21.108Z,4.85
2022-10-02T21:11:14.155Z,4.12
2022-10-02T21:16:41.688Z,4.15
2022-10-02T21:19:45.190Z,4.33
2022-10-02T21:22:17.866Z,4.75
2022-10-02T21:27:21.789Z,4.25
2022-10-02T21:30:02.787Z,4.00
2022-10-02T21:32:41.100Z,3.55
2022-10-02T21:35:19.348Z,3.70
2022-10-02T21:38:12.745Z,3.87
2022-10-02T21:40:48.349Z,3.87
2022-10-02T21:43:51.061Z,4.15
2022-10-02T21:46:32.375Z,4.62
2022-10-02T21:49:07.790Z,4.25
2022-10-02T21:51:48.454Z,4.25
2022-10-02T21:54:21.025Z,4.58
2022-10-02T21:59:39.894Z,4.22
2022-10-02T22:05:08.905Z,4.35
2022-10-02T22:08:01.783Z,4.70
2022-10-02T22:10:37.067Z,4.28
2022-10-02T22:13:27.673Z,4.62
2022-10-02T22:16:24.793Z,4.60
2022-10-02T22:19:00.250Z,4.30
2022-10-02T22:21:47.253Z,4.47
2022-10-02T22:24:22.497Z,5.10
2022-10-02T22:27:11.976Z,4.55
2022-10-02T22:29:52.849Z,4.83
2022-10-02T22:32:43.229Z,4.22
2022-10-02T22:35:21.698Z,4.10
2022-10-02T22:38:04.776Z,4.20
2022-10-02T22:40:43.391Z,4.47
2022-10-02T22:43:19.333Z,4.53
2022-10-02T22:45:51.922Z,4.80
2022-10-02T22:48:31.180Z,4.50
2022-10-02T22:51:06.284Z,4.47
2022-10-02T22:53:38.685Z,5.22
2022-10-02T22:56:19.938Z,5.08
2022-10-02T22:59:07.245Z,4.87
2022-10-02T23:01:39.931Z,4.80
2022-10-02T23:04:33.655Z,4.53
2022-10-02T23:07:16.349Z,4.97
2022-10-02T23:09:49.397Z,4.90
2022-10-02T23:12:25.457Z,4.58
2022-10-02T23:15:07.871Z,4.85
2022-10-02T23:18:07.106Z,4.70
2022-10-02T23:20:49.156Z,5.03
2022-10-02T23:23:29.985Z,4.58
2022-10-02T23:26:17.404Z,4.90
2022-10-02T23:29:14.410Z,4.62
2022-10-02T23:31:46.779Z,4.50
2022-10-02T23:34:37.672Z,5.20
2022-10-02T23:37:13.720Z,5.17
2022-10-02T23:39:52.016Z,4.70
2022-10-02T23:42:26.140Z,5.10
2022-10-02T23:44:58.210Z,4.85
2022-10-02T23:47:45.222Z,4.75
2022-10-02T23:50:29.492Z,5.30
2022-10-02T23:53:18.793Z,5.37
2022-10-02T23:55:57.223Z,5.85
2022-10-02T23:58:44.237Z,5.90
